Bogota, New Jersey
Current Conditions -  °F | °C
As of 7:02 PM on Wednesday 26 Nov 2014 (Local Time) from KTEB Reporting Station
Light Rain Light Rain  
Wind Chill: 26°   Ceiling: 900
Heat Index: 36°   Visibility: 3mi
Dew Point: 32°   Wind: 15mph
Humidity: 87%   Direction: 350°N
Pressure: 29.8"   Gusts: 21mph
Location:  40.88°N, 74.03°W
Report Text: KTEB 270002Z 35013G18KT 3SM -RA BKN009 OVC036 02/00 A2980 RMK AO2 P0000 $
Loading
Personal Weather Stations






























Interactive Weather Map New forecast layout! Learn more

10-Day Weather Forecast

Advertisements
Track Severe Weather on mobile